createdAt,value
2016-05-17T00:00:16.312Z,0
2016-05-17T00:01:16.347Z,0
2016-05-17T00:02:16.396Z,0
2016-05-17T00:03:16.430Z,0
2016-05-17T00:04:16.308Z,0
2016-05-17T00:05:16.497Z,0
2016-05-17T00:06:16.547Z,0
2016-05-17T00:07:16.456Z,0
2016-05-17T00:08:16.615Z,0
2016-05-17T00:09:16.649Z,0
2016-05-17T00:10:16.542Z,0
2016-05-17T00:11:16.561Z,0
2016-05-17T00:12:16.752Z,0
2016-05-17T00:13:16.800Z,0
2016-05-17T00:14:16.835Z,0
2016-05-17T00:15:16.868Z,0
2016-05-17T00:16:16.746Z,0
2016-05-17T00:17:16.952Z,0
2016-05-17T00:18:16.970Z,0
2016-05-17T00:19:17.021Z,0
2016-05-17T00:20:17.054Z,0
2016-05-17T00:21:17.088Z,0
2016-05-17T00:22:17.216Z,0
2016-05-17T00:23:17.156Z,0
2016-05-17T00:24:17.049Z,0
2016-05-17T00:25:17.098Z,0
2016-05-17T00:26:17.289Z,0
2016-05-17T00:27:17.167Z,0
2016-05-17T00:28:17.357Z,0
2016-05-17T00:29:17.375Z,0
2016-05-17T00:30:17.425Z,0
2016-05-17T00:31:17.473Z,0
2016-05-17T00:32:17.509Z,0
2016-05-17T00:33:17.526Z,0
2016-05-17T00:34:17.560Z,0
2016-05-17T00:35:17.625Z,0
2016-05-17T00:36:17.503Z,0
2016-05-17T00:37:18.131Z,0
2016-05-17T00:38:17.572Z,0
2016-05-17T00:39:17.761Z,0
2016-05-17T00:40:17.639Z,0
2016-05-17T00:41:17.672Z,0
2016-05-17T00:42:17.722Z,0
2016-05-17T00:43:17.913Z,0
2016-05-17T00:44:17.947Z,0
2016-05-17T00:45:17.825Z,0
2016-05-17T00:46:18.014Z,0
2016-05-17T00:47:17.892Z,0
2016-05-17T00:48:17.927Z,0
2016-05-17T00:49:18.132Z,0
2016-05-17T00:50:18.165Z,0
2016-05-17T00:51:18.199Z,0
2016-05-17T00:52:19.077Z,0
2016-05-17T00:53:18.268Z,0
2016-05-17T00:54:18.301Z,0
2016-05-17T00:55:18.335Z,0
2016-05-17T00:56:17.916Z,0
2016-05-17T00:57:18.418Z,0
2016-05-17T00:58:18.140Z,0
2016-05-17T00:59:18.174Z,0
2016-05-17T01:00:18.521Z,0
2016-05-17T01:01:18.571Z,0
2016-05-17T01:02:18.620Z,0
2016-05-17T01:03:18.482Z,0
2016-05-17T01:04:18.531Z,0
2016-05-17T01:05:18.706Z,0
2016-05-17T01:06:18.989Z,0
2016-05-17T01:07:18.978Z,0
2016-05-17T01:08:18.823Z,0
2016-05-17T01:09:18.873Z,0
2016-05-17T01:10:18.736Z,0
2016-05-17T01:11:18.941Z,0
2016-05-17T01:12:18.819Z,0
2016-05-17T01:13:19.009Z,0
2016-05-17T01:14:19.043Z,0
2016-05-17T01:15:19.077Z,0
2016-05-17T01:16:18.814Z,0
2016-05-17T01:17:19.161Z,0
2016-05-17T01:18:19.194Z,0
2016-05-17T01:19:19.228Z,0
2016-05-17T01:20:19.263Z,0
2016-05-17T01:21:19.140Z,0
2016-05-17T01:22:19.174Z,0
2016-05-17T01:23:19.363Z,0
2016-05-17T01:24:19.257Z,0
2016-05-17T01:25:19.448Z,0
2016-05-17T01:26:19.482Z,0
2016-05-17T01:27:19.515Z,0
2016-05-17T01:28:19.409Z,0
2016-05-17T01:29:19.583Z,0
2016-05-17T01:30:19.632Z,0
2016-05-17T01:31:19.667Z,0
2016-05-17T01:32:19.700Z,0
2016-05-17T01:33:19.595Z,0
2016-05-17T01:34:19.768Z,0
2016-05-17T01:35:19.818Z,0
2016-05-17T01:36:20.040Z,0
2016-05-17T01:37:19.745Z,0
2016-05-17T01:38:19.920Z,0
2016-05-17T01:39:19.813Z,0
2016-05-17T01:40:20.003Z,0
2016-05-17T01:41:20.022Z,0
2016-05-17T01:42:20.072Z,0
2016-05-17T01:43:20.105Z,0
2016-05-17T01:44:20.139Z,0
2016-05-17T01:45:20.172Z,0
2016-05-17T01:46:20.207Z,0
2016-05-17T01:47:20.257Z,0
2016-05-17T01:48:20.290Z,0
2016-05-17T01:49:20.325Z,0
2016-05-17T01:50:20.374Z,0
2016-05-17T01:51:20.564Z,0
2016-05-17T01:52:20.442Z,0
2016-05-17T01:53:20.460Z,0
2016-05-17T01:54:20.494Z,0
2016-05-17T01:55:20.387Z,0
2016-05-17T01:56:20.577Z,0
2016-05-17T01:57:20.455Z,0
2016-05-17T01:58:20.662Z,0
2016-05-17T01:59:20.679Z,0
2016-05-17T02:00:20.573Z,0
2016-05-17T02:01:20.763Z,0
2016-05-17T02:02:20.797Z,0
2016-05-17T02:03:20.846Z,0
2016-05-17T02:04:20.864Z,0
2016-05-17T02:05:20.899Z,0
2016-05-17T02:06:20.823Z,0
2016-05-17T02:07:21.529Z,0
2016-05-17T02:08:21.017Z,0
2016-05-17T02:09:20.909Z,0
2016-05-17T02:10:21.100Z,0
2016-05-17T02:11:21.118Z,0
2016-05-17T02:12:21.167Z,0
2016-05-17T02:13:21.061Z,0
2016-05-17T02:14:21.236Z,0
2016-05-17T02:15:21.113Z,0
2016-05-17T02:16:21.319Z,0
2016-05-17T02:17:21.338Z,0
2016-05-17T02:18:21.074Z,0
2016-05-17T02:19:21.453Z,0
2016-05-17T02:20:21.329Z,0
2016-05-17T02:21:21.676Z,0
2016-05-17T02:22:21.491Z,0
2016-05-17T02:23:21.572Z,0
2016-05-17T02:24:21.607Z,0
2016-05-17T02:25:21.640Z,0
2016-05-17T02:26:21.518Z,0
2016-05-17T02:27:21.708Z,0
2016-05-17T02:28:21.757Z,0
2016-05-17T02:29:21.463Z,0
2016-05-17T02:30:21.826Z,0
2016-05-17T02:31:21.860Z,0
2016-05-17T02:32:21.799Z,0
2016-05-17T02:33:21.927Z,0
2016-05-17T02:34:21.867Z,0
2016-05-17T02:35:21.839Z,0
2016-05-17T02:36:22.356Z,0
2016-05-17T02:37:22.485Z,0
2016-05-17T02:38:21.987Z,0
2016-05-17T02:39:22.162Z,0
2016-05-17T02:40:21.884Z,0
2016-05-17T02:41:22.089Z,0
2016-05-17T02:42:22.264Z,0
2016-05-17T02:43:22.297Z,0
2016-05-17T02:44:22.191Z,0
2016-05-17T02:45:22.209Z,0
2016-05-17T02:46:22.103Z,0
2016-05-17T02:47:22.450Z,0
2016-05-17T02:48:22.171Z,0
2016-05-17T02:49:22.516Z,0
2016-05-17T02:50:22.566Z,0
2016-05-17T02:51:22.945Z,0
2016-05-17T02:52:22.635Z,0
2016-05-17T02:53:22.669Z,0
2016-05-17T02:54:22.702Z,0
2016-05-17T02:55:22.736Z,0
2016-05-17T02:56:22.771Z,0
2016-05-17T02:57:22.820Z,0
2016-05-17T02:58:22.869Z,0
2016-05-17T02:59:22.888Z,0
2016-05-17T03:00:22.750Z,0
2016-05-17T03:01:22.940Z,0
2016-05-17T03:02:22.990Z,0
2016-05-17T03:03:23.039Z,0
2016-05-17T03:04:23.057Z,0
2016-05-17T03:05:22.951Z,0
2016-05-17T03:06:23.140Z,0
2016-05-17T03:07:22.878Z,0
2016-05-17T03:08:23.053Z,0
2016-05-17T03:09:23.242Z,0
2016-05-17T03:10:23.292Z,0
2016-05-17T03:11:23.326Z,0
2016-05-17T03:12:23.361Z,0
2016-05-17T03:13:23.253Z,0
2016-05-17T03:14:23.428Z,0
2016-05-17T03:15:23.321Z,0
2016-05-17T03:16:23.497Z,0
2016-05-17T03:17:23.545Z,0
2016-05-17T03:18:23.423Z,0
2016-05-17T03:19:23.598Z,0
2016-05-17T03:20:23.663Z,0
2016-05-17T03:21:23.540Z,0
2016-05-17T03:22:23.574Z,0
2016-05-17T03:23:23.749Z,0
2016-05-17T03:24:23.799Z,0
2016-05-17T03:25:23.832Z,0
2016-05-17T03:26:24.116Z,0
2016-05-17T03:27:24.026Z,0
2016-05-17T03:28:23.966Z,0
2016-05-17T03:29:23.999Z,0
2016-05-17T03:30:24.268Z,0
2016-05-17T03:31:24.067Z,0
2016-05-17T03:32:24.086Z,0
2016-05-17T03:33:24.121Z,0
2016-05-17T03:34:24.029Z,0
2016-05-17T03:35:24.032Z,0
2016-05-17T03:36:24.081Z,0
2016-05-17T03:37:24.974Z,0
2016-05-17T03:38:24.305Z,0
2016-05-17T03:39:24.340Z,0
2016-05-17T03:40:23.936Z,0
2016-05-17T03:41:24.407Z,0
2016-05-17T03:42:24.472Z,0
2016-05-17T03:43:24.490Z,0
2016-05-17T03:44:24.525Z,0
2016-05-17T03:45:24.558Z,0
2016-05-17T03:46:24.592Z,0
2016-05-17T03:47:24.641Z,0
2016-05-17T03:48:24.536Z,0
2016-05-17T03:49:24.538Z,0
2016-05-17T03:50:24.743Z,0
2016-05-17T03:51:25.216Z,0
2016-05-17T03:52:24.671Z,0
2016-05-17T03:53:24.846Z,0
2016-05-17T03:54:24.894Z,0
2016-05-17T03:55:24.913Z,0
2016-05-17T03:56:24.963Z,0
2016-05-17T03:57:24.997Z,0
2016-05-17T03:58:25.030Z,0
2016-05-17T03:59:24.924Z,0
2016-05-17T04:00:25.099Z,0
2016-05-17T04:01:25.132Z,0
2016-05-17T04:02:25.182Z,0
2016-05-17T04:03:25.075Z,0
2016-05-17T04:04:25.251Z,0
2016-05-17T04:05:25.144Z,0
2016-05-17T04:06:25.334Z,0
2016-05-17T04:07:25.727Z,0
2016-05-17T04:08:25.401Z,0
2016-05-17T04:09:25.451Z,0
2016-05-17T04:10:25.469Z,0
2016-05-17T04:11:25.503Z,0
2016-05-17T04:12:25.553Z,0
2016-05-17T04:13:25.587Z,0
2016-05-17T04:14:25.620Z,0
2016-05-17T04:15:25.655Z,5
2016-05-17T04:16:25.689Z,5
2016-05-17T04:17:25.722Z,5
2016-05-17T04:18:25.756Z,5
2016-05-17T04:19:25.790Z,5
2016-05-17T04:20:25.840Z,5
2016-05-17T04:21:25.765Z,5
2016-05-17T04:22:25.767Z,5
2016-05-17T04:23:25.786Z,5
2016-05-17T04:24:25.975Z,5
2016-05-17T04:25:25.869Z,0
2016-05-17T04:26:26.059Z,0
2016-05-17T04:27:26.077Z,0
2016-05-17T04:28:26.143Z,0
2016-05-17T04:29:26.177Z,0
2016-05-17T04:30:26.195Z,5
2016-05-17T04:31:26.229Z,0
2016-05-17T04:32:26.310Z,0
2016-05-17T04:33:26.156Z,0
2016-05-17T04:34:26.346Z,0
2016-05-17T04:35:26.379Z,0
2016-05-17T04:36:26.430Z,0
2016-05-17T04:37:26.793Z,0
2016-05-17T04:38:26.498Z,0
2016-05-17T04:39:26.516Z,0
2016-05-17T04:40:26.565Z,0
2016-05-17T04:41:26.600Z,0
2016-05-17T04:42:26.633Z,0
2016-05-17T04:43:26.667Z,0
2016-05-17T04:44:26.717Z,0
2016-05-17T04:45:26.751Z,0
2016-05-17T04:46:26.629Z,0
2016-05-17T04:47:26.819Z,0
2016-05-17T04:48:26.697Z,0
2016-05-17T04:49:26.902Z,0
2016-05-17T04:50:26.920Z,0
2016-05-17T04:51:27.157Z,0
2016-05-17T04:52:27.005Z,0
2016-05-17T04:53:27.023Z,0
2016-05-17T04:54:26.916Z,0
2016-05-17T04:55:27.106Z,0
2016-05-17T04:56:27.140Z,5
2016-05-17T04:57:27.174Z,5
2016-05-17T04:58:27.224Z,5
2016-05-17T04:59:27.257Z,5
2016-05-17T05:00:27.291Z,5
2016-05-17T05:01:27.325Z,5
2016-05-17T05:02:27.360Z,5
2016-05-17T05:03:27.080Z,5
2016-05-17T05:04:27.130Z,5
2016-05-17T05:05:27.476Z,5
2016-05-17T05:06:27.526Z,5
2016-05-17T05:07:27.559Z,5
2016-05-17T05:08:27.578Z,5
2016-05-17T05:09:27.493Z,10
2016-05-17T05:10:27.726Z,5
2016-05-17T05:11:27.663Z,5
2016-05-17T05:12:27.723Z,5
2016-05-17T05:13:27.832Z,5
2016-05-17T05:14:28.020Z,5
2016-05-17T05:15:28.069Z,5
2016-05-17T05:16:28.135Z,5
2016-05-17T05:17:28.183Z,5
2016-05-17T05:18:28.234Z,5
2016-05-17T05:19:28.122Z,5
2016-05-17T05:20:28.333Z,5
2016-05-17T05:21:28.216Z,5
2016-05-17T05:22:28.661Z,0
2016-05-17T05:23:28.449Z,0
2016-05-17T05:24:28.331Z,0
2016-05-17T05:25:28.540Z,5
2016-05-17T05:26:28.591Z,0
2016-05-17T05:27:28.611Z,5
2016-05-17T05:28:28.507Z,5
2016-05-17T05:29:28.526Z,5
2016-05-17T05:30:28.732Z,5
2016-05-17T05:31:28.767Z,5
2016-05-17T05:32:28.802Z,5
2016-05-17T05:33:28.822Z,5
2016-05-17T05:34:28.870Z,5
2016-05-17T05:35:28.906Z,5
2016-05-17T05:36:28.956Z,5
2016-05-17T05:37:28.849Z,10
2016-05-17T05:38:28.852Z,10
2016-05-17T05:39:29.058Z,10
2016-05-17T05:40:29.092Z,10
2016-05-17T05:41:29.126Z,10
2016-05-17T05:42:29.160Z,10
2016-05-17T05:43:29.038Z,10
2016-05-17T05:44:29.228Z,5
2016-05-17T05:45:29.293Z,5
2016-05-17T05:46:29.312Z,10
2016-05-17T05:47:29.345Z,10
2016-05-17T05:48:29.380Z,5
2016-05-17T05:49:29.412Z,5
2016-05-17T05:50:29.306Z,10
2016-05-17T05:51:29.559Z,10
2016-05-17T05:52:29.390Z,5
2016-05-17T05:53:29.409Z,5
2016-05-17T05:54:29.443Z,10
2016-05-17T05:55:29.476Z,10
2016-05-17T05:56:29.667Z,10
2016-05-17T05:57:29.701Z,10
2016-05-17T05:58:29.594Z,10
2016-05-17T05:59:29.784Z,10
2016-05-17T06:00:29.787Z,10
2016-05-17T06:01:29.852Z,10
2016-05-17T06:02:29.730Z,10
2016-05-17T06:03:29.920Z,15
2016-05-17T06:04:29.953Z,15
2016-05-17T06:05:30.003Z,15
2016-05-17T06:06:30.068Z,15
2016-05-17T06:07:30.790Z,15
2016-05-17T06:08:29.949Z,15
2016-05-17T06:09:30.155Z,15
2016-05-17T06:10:30.188Z,15
2016-05-17T06:11:30.238Z,15
2016-05-17T06:12:30.099Z,15
2016-05-17T06:13:30.306Z,15
2016-05-17T06:14:30.324Z,15
2016-05-17T06:15:30.358Z,15
2016-05-17T06:16:30.407Z,15
2016-05-17T06:17:30.457Z,20
2016-05-17T06:18:30.507Z,15
2016-05-17T06:19:30.509Z,15
2016-05-17T06:20:30.607Z,15
2016-05-17T06:21:30.437Z,15
2016-05-17T06:22:30.626Z,15
2016-05-17T06:23:30.645Z,10
2016-05-17T06:24:30.695Z,10
2016-05-17T06:25:30.729Z,10
2016-05-17T06:26:30.763Z,10
2016-05-17T06:27:30.798Z,15
2016-05-17T06:28:30.846Z,15
2016-05-17T06:29:30.725Z,15
2016-05-17T06:30:30.914Z,15
2016-05-17T06:31:30.948Z,15
2016-05-17T06:32:30.998Z,15
2016-05-17T06:33:31.017Z,15
2016-05-17T06:34:31.050Z,15
2016-05-17T06:35:31.100Z,15
2016-05-17T06:36:31.540Z,15
2016-05-17T06:37:31.167Z,15
2016-05-17T06:38:31.061Z,15
2016-05-17T06:39:31.251Z,20
2016-05-17T06:40:31.129Z,20
2016-05-17T06:41:31.319Z,20
2016-05-17T06:42:31.353Z,20
2016-05-17T06:43:31.387Z,20
2016-05-17T06:44:31.436Z,20
2016-05-17T06:45:31.299Z,20
2016-05-17T06:46:31.504Z,20
2016-05-17T06:47:31.538Z,20
2016-05-17T06:48:31.571Z,20
2016-05-17T06:49:31.449Z,20
2016-05-17T06:50:31.499Z,20
2016-05-17T06:51:31.549Z,20
2016-05-17T06:52:31.723Z,20
2016-05-17T06:53:31.585Z,20
2016-05-17T06:54:31.792Z,20
2016-05-17T06:55:31.840Z,25
2016-05-17T06:56:31.859Z,25
2016-05-17T06:57:31.892Z,25
2016-05-17T06:58:31.646Z,25
2016-05-17T06:59:31.976Z,25
2016-05-17T07:00:32.026Z,25
2016-05-17T07:01:32.044Z,25
2016-05-17T07:02:32.094Z,20
2016-05-17T07:03:32.128Z,20
2016-05-17T07:04:32.161Z,25
2016-05-17T07:05:32.055Z,20
2016-05-17T07:06:32.089Z,25
2016-05-17T07:07:32.108Z,25
2016-05-17T07:08:32.297Z,25
2016-05-17T07:09:32.347Z,15
2016-05-17T07:10:32.396Z,15
2016-05-17T07:11:32.430Z,25
2016-05-17T07:12:32.308Z,20
2016-05-17T07:13:32.499Z,15
2016-05-17T07:14:32.391Z,20
2016-05-17T07:15:32.426Z,20
2016-05-17T07:16:32.444Z,15
2016-05-17T07:17:32.682Z,15
2016-05-17T07:18:32.699Z,20
2016-05-17T07:19:32.702Z,25
2016-05-17T07:20:32.767Z,25
2016-05-17T07:21:32.926Z,30
2016-05-17T07:22:32.695Z,30
2016-05-17T07:23:32.884Z,30
2016-05-17T07:24:32.888Z,30
2016-05-17T07:25:32.937Z,30
2016-05-17T07:26:33.003Z,30
2016-05-17T07:27:33.006Z,35
2016-05-17T07:28:33.039Z,30
2016-05-17T07:29:33.073Z,30
2016-05-17T07:30:33.106Z,30
2016-05-17T07:31:33.156Z,25
2016-05-17T07:32:33.190Z,30
2016-05-17T07:33:33.225Z,30
2016-05-17T07:34:33.258Z,30
2016-05-17T07:35:33.308Z,30
2016-05-17T07:36:33.670Z,25
2016-05-17T07:37:33.688Z,25
2016-05-17T07:38:33.410Z,20
2016-05-17T07:39:33.288Z,20
2016-05-17T07:40:33.493Z,20
2016-05-17T07:41:33.355Z,10
2016-05-17T07:42:34.046Z,15
2016-05-17T07:43:33.610Z,10
2016-05-17T07:44:33.629Z,10
2016-05-17T07:45:33.662Z,10
2016-05-17T07:46:34.385Z,20
2016-05-17T07:47:33.935Z,30
2016-05-17T07:48:34.077Z,30
2016-05-17T07:49:33.658Z,30
2016-05-17T07:50:33.692Z,25
2016-05-17T07:51:35.054Z,25
2016-05-17T07:52:34.057Z,30
2016-05-17T07:53:33.965Z,35
2016-05-17T07:54:33.843Z,35
2016-05-17T07:55:34.033Z,35
2016-05-17T07:56:34.084Z,25
2016-05-17T07:57:34.117Z,10
2016-05-17T07:58:34.151Z,15
2016-05-17T07:59:34.185Z,20
2016-05-17T08:00:34.219Z,25
2016-05-17T08:01:34.268Z,35
2016-05-17T08:02:34.303Z,40
2016-05-17T08:03:34.180Z,35
2016-05-17T08:04:34.370Z,35
2016-05-17T08:05:34.403Z,35
2016-05-17T08:06:34.767Z,30
2016-05-17T08:07:34.956Z,15
2016-05-17T08:08:34.365Z,20
2016-05-17T08:09:34.400Z,20
2016-05-17T08:10:34.589Z,15
2016-05-17T08:11:34.624Z,10
2016-05-17T08:12:34.673Z,20
2016-05-17T08:13:34.550Z,20
2016-05-17T08:14:34.725Z,20
2016-05-17T08:15:34.774Z,25
2016-05-17T08:16:34.824Z,15
2016-05-17T08:17:34.546Z,10
2016-05-17T08:18:34.892Z,10
2016-05-17T08:19:34.926Z,15
2016-05-17T08:20:34.960Z,15
2016-05-17T08:21:35.415Z,15
2016-05-17T08:22:34.872Z,20
2016-05-17T08:23:35.077Z,20
2016-05-17T08:24:34.955Z,20
2016-05-17T08:25:35.145Z,20
2016-05-17T08:26:35.179Z,20
2016-05-17T08:27:35.213Z,25
2016-05-17T08:28:35.247Z,20
2016-05-17T08:29:35.297Z,25
2016-05-17T08:30:35.331Z,20
2016-05-17T08:31:35.365Z,30
2016-05-17T08:32:35.414Z,35
2016-05-17T08:33:35.448Z,35
2016-05-17T08:34:35.498Z,35
2016-05-17T08:35:35.610Z,35
2016-05-17T08:36:36.112Z,35
2016-05-17T08:37:36.412Z,30
2016-05-17T08:38:35.634Z,30
2016-05-17T08:39:35.511Z,40
2016-05-17T08:40:35.561Z,25
2016-05-17T08:41:35.595Z,25
2016-05-17T08:42:35.769Z,30
2016-05-17T08:43:35.835Z,25
2016-05-17T08:44:35.696Z,25
2016-05-17T08:45:35.886Z,20
2016-05-17T08:46:35.921Z,20
2016-05-17T08:47:35.814Z,25
2016-05-17T08:48:36.004Z,30
2016-05-17T08:49:36.022Z,35
2016-05-17T08:50:36.071Z,30
2016-05-17T08:51:36.324Z,25
2016-05-17T08:52:36.296Z,20
2016-05-17T08:53:36.221Z,20
2016-05-17T08:54:36.208Z,30
2016-05-17T08:55:36.101Z,40
2016-05-17T08:56:36.135Z,40
2016-05-17T08:57:36.341Z,45
2016-05-17T08:58:36.203Z,45
2016-05-17T08:59:36.424Z,45
2016-05-17T09:00:36.443Z,40
2016-05-17T09:01:36.476Z,45
2016-05-17T09:02:36.511Z,45
2016-05-17T09:03:36.559Z,45
2016-05-17T09:04:36.594Z,40
2016-05-17T09:05:36.534Z,40
2016-05-17T09:06:37.692Z,40
2016-05-17T09:07:36.727Z,35
2016-05-17T09:08:36.589Z,40
2016-05-17T09:09:36.764Z,40
2016-05-17T09:10:36.829Z,40
2016-05-17T09:11:36.847Z,35
2016-05-17T09:12:36.772Z,40
2016-05-17T09:13:42.243Z,25
2016-05-17T09:14:36.840Z,25
2016-05-17T09:15:36.858Z,35
2016-05-17T09:16:36.877Z,40
2016-05-17T09:17:37.082Z,25
2016-05-17T09:18:36.960Z,15
2016-05-17T09:19:37.181Z,10
2016-05-17T09:20:37.184Z,15
2016-05-17T09:21:37.437Z,30
2016-05-17T09:22:37.002Z,20
2016-05-17T09:23:37.286Z,25
2016-05-17T09:24:37.335Z,15
2016-05-17T09:25:37.213Z,10
2016-05-17T09:26:37.482Z,10
2016-05-17T09:27:37.453Z,10
2016-05-17T09:28:37.487Z,15
2016-05-17T09:29:37.880Z,30
2016-05-17T09:30:37.757Z,35
2016-05-17T09:31:37.948Z,35
2016-05-17T09:32:38.013Z,35
2016-05-17T09:33:38.032Z,115
2016-05-17T09:34:37.862Z,110
2016-05-17T09:35:38.115Z,110
2016-05-17T09:36:38.587Z,110
2016-05-17T09:37:37.698Z,110
2016-05-17T09:38:37.545Z,115
2016-05-17T09:39:38.173Z,105
2016-05-17T09:40:38.253Z,65
2016-05-17T09:41:37.866Z,65
2016-05-17T09:42:38.009Z,85
2016-05-17T09:43:38.042Z,75
2016-05-17T09:44:38.092Z,95
2016-05-17T09:45:37.641Z,145
2016-05-17T09:46:38.004Z,90
2016-05-17T09:47:38.194Z,60
2016-05-17T09:48:38.212Z,80
2016-05-17T09:49:38.262Z,105
2016-05-17T09:50:38.296Z,120
2016-05-17T09:51:38.283Z,135
2016-05-17T09:52:38.677Z,95
2016-05-17T09:53:38.774Z,85
2016-05-17T09:54:38.775Z,140
2016-05-17T09:55:38.888Z,130
2016-05-17T09:56:38.360Z,145
2016-05-17T09:57:38.393Z,145
2016-05-17T09:58:38.599Z,140
2016-05-17T09:59:38.648Z,115
2016-05-17T10:00:38.573Z,100
2016-05-17T10:01:38.560Z,120
2016-05-17T10:02:38.734Z,140
2016-05-17T10:03:38.628Z,110
2016-05-17T10:04:38.506Z,85
2016-05-17T10:05:38.851Z,110
2016-05-17T10:06:38.745Z,120
2016-05-17T10:07:38.920Z,70
2016-05-17T10:08:38.970Z,105
2016-05-17T10:09:39.003Z,105
2016-05-17T10:10:38.881Z,110
2016-05-17T10:11:39.086Z,120
2016-05-17T10:12:39.106Z,130
2016-05-17T10:13:39.170Z,140
2016-05-17T10:14:39.033Z,160
2016-05-17T10:15:39.067Z,155
2016-05-17T10:16:39.256Z,150
2016-05-17T10:17:39.306Z,140
2016-05-17T10:18:39.341Z,145
2016-05-17T10:19:39.358Z,145
2016-05-17T10:20:39.424Z,140
2016-05-17T10:21:39.567Z,140
2016-05-17T10:22:39.335Z,145
2016-05-17T10:23:39.525Z,145
2016-05-17T10:24:39.418Z,140
2016-05-17T10:25:39.610Z,140
2016-05-17T10:26:39.487Z,135
2016-05-17T10:27:39.676Z,155
2016-05-17T10:28:39.727Z,175
2016-05-17T10:29:39.448Z,170
2016-05-17T10:30:39.793Z,165
2016-05-17T10:31:39.829Z,155
2016-05-17T10:32:39.862Z,155
2016-05-17T10:33:39.912Z,160
2016-05-17T10:34:39.930Z,135
2016-05-17T10:35:39.964Z,155
2016-05-17T10:36:39.934Z,120
2016-05-17T10:37:40.048Z,95
2016-05-17T10:38:40.081Z,80
2016-05-17T10:39:39.959Z,45
2016-05-17T10:40:40.009Z,40
2016-05-17T10:41:40.043Z,30
2016-05-17T10:42:40.092Z,40
2016-05-17T10:43:40.283Z,50
2016-05-17T10:44:40.317Z,60
2016-05-17T10:45:40.350Z,85
2016-05-17T10:46:40.244Z,95
2016-05-17T10:47:40.419Z,85
2016-05-17T10:48:40.311Z,90
2016-05-17T10:49:40.502Z,120
2016-05-17T10:50:40.395Z,120
2016-05-17T10:51:41.164Z,140
2016-05-17T10:52:40.619Z,155
2016-05-17T10:53:40.653Z,165
2016-05-17T10:54:40.671Z,160
2016-05-17T10:55:40.736Z,145
2016-05-17T10:56:40.771Z,140
2016-05-17T10:57:40.804Z,130
2016-05-17T10:58:40.823Z,135
2016-05-17T10:59:40.888Z,145
2016-05-17T11:00:40.938Z,140
2016-05-17T11:01:40.956Z,145
2016-05-17T11:02:41.005Z,165
2016-05-17T11:03:41.023Z,175
2016-05-17T11:04:40.760Z,185
2016-05-17T11:05:41.107Z,175
2016-05-17T11:06:41.187Z,150
2016-05-17T11:07:41.190Z,140
2016-05-17T11:08:41.428Z,120
2016-05-17T11:09:41.290Z,75
2016-05-17T11:10:41.292Z,80
2016-05-17T11:11:41.326Z,110
2016-05-17T11:12:41.219Z,70
2016-05-17T11:13:41.409Z,75
2016-05-17T11:14:41.287Z,95
2016-05-17T11:15:41.602Z,140
2016-05-17T11:16:41.527Z,105
2016-05-17T11:17:41.561Z,100
2016-05-17T11:18:41.580Z,160
2016-05-17T11:19:41.645Z,145
2016-05-17T11:20:41.664Z,120
2016-05-17T11:21:42.009Z,125
2016-05-17T11:22:41.746Z,120
2016-05-17T11:23:41.625Z,110
2016-05-17T11:24:41.814Z,130
2016-05-17T11:25:41.849Z,135
2016-05-17T11:26:41.961Z,115
2016-05-17T11:27:41.916Z,105
2016-05-17T11:28:42.044Z,120
2016-05-17T11:29:42.015Z,150
2016-05-17T11:30:42.112Z,115
2016-05-17T11:31:41.990Z,85
2016-05-17T11:32:42.211Z,130
2016-05-17T11:33:42.151Z,95
2016-05-17T11:34:42.310Z,55
2016-05-17T11:35:42.173Z,50
2016-05-17T11:36:42.331Z,80
2016-05-17T11:37:42.567Z,55
2016-05-17T11:38:42.352Z,60
2016-05-17T11:39:42.386Z,65
2016-05-17T11:40:42.436Z,85
2016-05-17T11:41:42.454Z,75
2016-05-17T11:42:42.581Z,45
2016-05-17T11:43:42.381Z,30
2016-05-17T11:44:42.571Z,40
2016-05-17T11:45:42.449Z,55
2016-05-17T11:46:42.639Z,50
2016-05-17T11:47:42.705Z,65
2016-05-17T11:48:42.582Z,90
2016-05-17T11:49:42.600Z,115
2016-05-17T11:50:42.791Z,120
2016-05-17T11:51:42.840Z,120
2016-05-17T11:52:42.889Z,120
2016-05-17T11:53:42.908Z,125
2016-05-17T11:54:42.941Z,135
2016-05-17T11:55:42.819Z,145
2016-05-17T11:56:43.244Z,160
2016-05-17T11:57:42.887Z,170
2016-05-17T11:58:43.235Z,175
2016-05-17T11:59:43.253Z,170
2016-05-17T12:00:43.004Z,175
2016-05-17T12:01:43.210Z,180
2016-05-17T12:02:43.245Z,190
2016-05-17T12:03:43.138Z,170
2016-05-17T12:04:43.156Z,140
2016-05-17T12:05:43.379Z,185
2016-05-17T12:06:43.568Z,185
2016-05-17T12:07:43.445Z,165
2016-05-17T12:08:43.386Z,110
2016-05-17T12:09:43.404Z,170
2016-05-17T12:10:43.547Z,185
2016-05-17T12:11:43.597Z,145
2016-05-17T12:12:43.459Z,95
2016-05-17T12:13:43.509Z,70
2016-05-17T12:14:43.542Z,70
2016-05-17T12:15:43.576Z,65
2016-05-17T12:16:43.861Z,100
2016-05-17T12:17:43.644Z,85
2016-05-17T12:18:43.850Z,65
2016-05-17T12:19:44.150Z,55
2016-05-17T12:20:43.762Z,40
2016-05-17T12:21:44.171Z,35
2016-05-17T12:22:44.002Z,20
2016-05-17T12:23:44.035Z,15
2016-05-17T12:24:43.913Z,15
2016-05-17T12:25:43.963Z,20
2016-05-17T12:26:43.997Z,25
2016-05-17T12:27:44.546Z,20
2016-05-17T12:28:44.283Z,20
2016-05-17T12:29:44.599Z,20
2016-05-17T12:30:44.321Z,25
2016-05-17T12:31:44.526Z,20
2016-05-17T12:32:44.451Z,20
2016-05-17T12:33:44.532Z,20
2016-05-17T12:34:44.799Z,20
2016-05-17T12:35:44.646Z,25
2016-05-17T12:36:44.601Z,20
2016-05-17T12:37:44.620Z,20
2016-05-17T12:38:44.779Z,15
2016-05-17T12:39:44.626Z,15
2016-05-17T12:40:44.737Z,15
2016-05-17T12:41:44.928Z,15
2016-05-17T12:42:44.946Z,15
2016-05-17T12:43:45.168Z,15
2016-05-17T12:44:44.811Z,15
2016-05-17T12:45:44.954Z,15
2016-05-17T12:46:44.957Z,10
2016-05-17T12:47:45.209Z,10
2016-05-17T12:48:44.805Z,15
2016-05-17T12:49:45.074Z,15
2016-05-17T12:50:45.108Z,15
2016-05-17T12:51:45.439Z,15
2016-05-17T12:52:45.082Z,15
2016-05-17T12:53:45.147Z,15
2016-05-17T12:54:45.213Z,20
2016-05-17T12:55:45.231Z,25
2016-05-17T12:56:45.125Z,25
2016-05-17T12:57:45.299Z,35
2016-05-17T12:58:45.332Z,55
2016-05-17T12:59:45.257Z,85
2016-05-17T13:00:45.416Z,110
2016-05-17T13:01:45.466Z,115
2016-05-17T13:02:45.485Z,115
2016-05-17T13:03:45.534Z,110
2016-05-17T13:04:45.552Z,115
2016-05-17T13:05:45.446Z,130
2016-05-17T13:06:45.495Z,145
2016-05-17T13:07:45.404Z,170
2016-05-17T13:08:45.703Z,185
2016-05-17T13:09:45.831Z,180
2016-05-17T13:10:45.787Z,180
2016-05-17T13:11:45.821Z,180
2016-05-17T13:12:45.870Z,175
2016-05-17T13:13:45.889Z,165
2016-05-17T13:14:45.939Z,155
2016-05-17T13:15:45.817Z,140
2016-05-17T13:16:46.023Z,125
2016-05-17T13:17:45.900Z,115
2016-05-17T13:18:46.089Z,115
2016-05-17T13:19:46.123Z,115
2016-05-17T13:20:46.158Z,115
2016-05-17T13:21:46.051Z,90
2016-05-17T13:22:46.256Z,105
2016-05-17T13:23:46.119Z,100
2016-05-17T13:24:46.152Z,80
2016-05-17T13:25:46.344Z,65
2016-05-17T13:26:46.392Z,65
2016-05-17T13:27:46.270Z,85
2016-05-17T13:28:46.460Z,85
2016-05-17T13:29:46.494Z,75
2016-05-17T13:30:46.543Z,80
2016-05-17T13:31:46.718Z,70
2016-05-17T13:32:46.471Z,65
2016-05-17T13:33:46.661Z,60
2016-05-17T13:34:46.695Z,55
2016-05-17T13:35:46.604Z,50
2016-05-17T13:36:46.763Z,45
2016-05-17T13:37:47.454Z,45
2016-05-17T13:38:46.862Z,45
2016-05-17T13:39:46.881Z,50
2016-05-17T13:40:46.915Z,45
2016-05-17T13:41:46.949Z,40
2016-05-17T13:42:46.967Z,40
2016-05-17T13:43:47.032Z,40
2016-05-17T13:44:47.066Z,35
2016-05-17T13:45:47.100Z,25
2016-05-17T13:46:46.978Z,30
2016-05-17T13:47:47.168Z,30
2016-05-17T13:48:47.202Z,35
2016-05-17T13:49:47.251Z,40
2016-05-17T13:50:47.286Z,30
2016-05-17T13:51:47.319Z,25
2016-05-17T13:52:47.525Z,30
2016-05-17T13:53:47.387Z,40
2016-05-17T13:54:47.437Z,35
2016-05-17T13:55:47.470Z,35
2016-05-17T13:56:47.536Z,35
2016-05-17T13:57:47.382Z,45
2016-05-17T13:58:47.433Z,45
2016-05-17T13:59:47.606Z,25
2016-05-17T14:00:47.655Z,20
2016-05-17T14:01:47.533Z,15
2016-05-17T14:02:47.583Z,15
2016-05-17T14:03:47.633Z,20
2016-05-17T14:04:47.651Z,20
2016-05-17T14:05:47.841Z,20
2016-05-17T14:06:47.719Z,30
2016-05-17T14:07:48.299Z,35
2016-05-17T14:08:47.959Z,40
2016-05-17T14:09:47.993Z,40
2016-05-17T14:10:48.026Z,45
2016-05-17T14:11:48.060Z,50
2016-05-17T14:12:48.094Z,55
2016-05-17T14:13:48.143Z,45
2016-05-17T14:14:48.178Z,45
2016-05-17T14:15:47.945Z,45
2016-05-17T14:16:48.316Z,40
2016-05-17T14:17:48.391Z,45
2016-05-17T14:18:48.482Z,40
2016-05-17T14:19:48.573Z,40
2016-05-17T14:20:48.457Z,50
2016-05-17T14:21:48.646Z,40
2016-05-17T14:22:48.805Z,40